sensor_id;sensor_type;location;lat;lon;timestamp;P1;durP1;ratioP1;P2;durP2;ratioP2
67889;SDS011;54685;52.082;5.426;2022-11-14T00:01:05;13.27;;;9.27;;
67889;SDS011;54685;52.082;5.426;2022-11-14T00:03:52;14.43;;;9.93;;
67889;SDS011;54685;52.082;5.426;2022-11-14T00:06:38;13.82;;;9.55;;
67889;SDS011;54685;52.082;5.426;2022-11-14T00:09:24;13.18;;;10.00;;
67889;SDS011;54685;52.082;5.426;2022-11-14T00:12:10;11.90;;;9.32;;
67889;SDS011;54685;52.082;5.426;2022-11-14T00:14:55;17.35;;;10.45;;
67889;SDS011;54685;52.082;5.426;2022-11-14T00:17:41;18.80;;;11.25;;
67889;SDS011;54685;52.082;5.426;2022-11-14T00:20:26;16.33;;;11.02;;
67889;SDS011;54685;52.082;5.426;2022-11-14T00:23:12;19.38;;;13.80;;
67889;SDS011;54685;52.082;5.426;2022-11-14T00:25:57;17.83;;;13.70;;
67889;SDS011;54685;52.082;5.426;2022-11-14T00:28:42;19.48;;;12.82;;
67889;SDS011;54685;52.082;5.426;2022-11-14T00:31:28;20.85;;;13.13;;
67889;SDS011;54685;52.082;5.426;2022-11-14T00:34:13;21.02;;;13.35;;
67889;SDS011;54685;52.082;5.426;2022-11-14T00:36:59;21.80;;;13.50;;
67889;SDS011;54685;52.082;5.426;2022-11-14T00:39:44;25.45;;;13.73;;
67889;SDS011;54685;52.082;5.426;2022-11-14T00:42:29;21.17;;;14.40;;
67889;SDS011;54685;52.082;5.426;2022-11-14T00:45:15;20.55;;;15.02;;
67889;SDS011;54685;52.082;5.426;2022-11-14T00:48:00;25.83;;;15.85;;
67889;SDS011;54685;52.082;5.426;2022-11-14T00:50:46;20.30;;;13.75;;
67889;SDS011;54685;52.082;5.426;2022-11-14T00:53:31;21.85;;;15.15;;
67889;SDS011;54685;52.082;5.426;2022-11-14T00:56:16;24.60;;;15.15;;
67889;SDS011;54685;52.082;5.426;2022-11-14T00:59:02;25.73;;;16.85;;
67889;SDS011;54685;52.082;5.426;2022-11-14T01:01:48;24.73;;;16.02;;
67889;SDS011;54685;52.082;5.426;2022-11-14T01:04:39;23.80;;;15.57;;
67889;SDS011;54685;52.082;5.426;2022-11-14T01:07:24;23.85;;;16.67;;
67889;SDS011;54685;52.082;5.426;2022-11-14T01:10:10;28.25;;;18.00;;
67889;SDS011;54685;52.082;5.426;2022-11-14T01:12:55;27.88;;;18.42;;
67889;SDS011;54685;52.082;5.426;2022-11-14T01:15:41;24.88;;;17.23;;
67889;SDS011;54685;52.082;5.426;2022-11-14T01:18:29;26.27;;;17.85;;
67889;SDS011;54685;52.082;5.426;2022-11-14T01:21:15;29.42;;;19.30;;
67889;SDS011;54685;52.082;5.426;2022-11-14T01:24:01;30.65;;;18.95;;
67889;SDS011;54685;52.082;5.426;2022-11-14T01:26:47;25.55;;;17.67;;
67889;SDS011;54685;52.082;5.426;2022-11-14T01:29:33;29.55;;;19.25;;
67889;SDS011;54685;52.082;5.426;2022-11-14T01:32:18;25.80;;;17.20;;
67889;SDS011;54685;52.082;5.426;2022-11-14T01:35:04;33.22;;;18.30;;
67889;SDS011;54685;52.082;5.426;2022-11-14T01:37:49;27.85;;;18.52;;
67889;SDS011;54685;52.082;5.426;2022-11-14T01:40:39;30.23;;;19.70;;
67889;SDS011;54685;52.082;5.426;2022-11-14T01:43:27;30.55;;;18.88;;
67889;SDS011;54685;52.082;5.426;2022-11-14T01:46:25;30.17;;;19.67;;
67889;SDS011;54685;52.082;5.426;2022-11-14T01:49:17;29.73;;;19.23;;
67889;SDS011;54685;52.082;5.426;2022-11-14T01:52:07;31.25;;;20.05;;
67889;SDS011;54685;52.082;5.426;2022-11-14T01:54:59;26.57;;;18.27;;
67889;SDS011;54685;52.082;5.426;2022-11-14T01:57:46;30.02;;;18.77;;
67889;SDS011;54685;52.082;5.426;2022-11-14T02:00:33;30.50;;;19.33;;
67889;SDS011;54685;52.082;5.426;2022-11-14T02:03:18;32.30;;;21.00;;
67889;SDS011;54685;52.082;5.426;2022-11-14T02:06:05;32.28;;;21.17;;
67889;SDS011;54685;52.082;5.426;2022-11-14T02:08:52;33.08;;;20.58;;
67889;SDS011;54685;52.082;5.426;2022-11-14T02:11:42;33.97;;;20.38;;
67889;SDS011;54685;52.082;5.426;2022-11-14T02:14:29;34.10;;;21.40;;
67889;SDS011;54685;52.082;5.426;2022-11-14T02:17:16;30.50;;;19.58;;
67889;SDS011;54685;52.082;5.426;2022-11-14T02:20:21;30.42;;;19.98;;
67889;SDS011;54685;52.082;5.426;2022-11-14T02:23:23;30.23;;;20.38;;
67889;SDS011;54685;52.082;5.426;2022-11-14T02:26:10;29.15;;;18.92;;
67889;SDS011;54685;52.082;5.426;2022-11-14T02:28:55;30.33;;;20.15;;
67889;SDS011;54685;52.082;5.426;2022-11-14T02:31:41;35.45;;;21.92;;
67889;SDS011;54685;52.082;5.426;2022-11-14T02:34:26;32.53;;;20.98;;
67889;SDS011;54685;52.082;5.426;2022-11-14T02:37:12;33.58;;;21.98;;
67889;SDS011;54685;52.082;5.426;2022-11-14T02:39:57;36.00;;;21.33;;
67889;SDS011;54685;52.082;5.426;2022-11-14T02:42:43;35.65;;;20.25;;
67889;SDS011;54685;52.082;5.426;2022-11-14T02:45:28;33.60;;;20.40;;
67889;SDS011;54685;52.082;5.426;2022-11-14T02:48:14;37.03;;;21.85;;
67889;SDS011;54685;52.082;5.426;2022-11-14T02:50:59;34.03;;;20.65;;
67889;SDS011;54685;52.082;5.426;2022-11-14T02:53:45;34.90;;;21.48;;
67889;SDS011;54685;52.082;5.426;2022-11-14T02:56:30;33.60;;;21.95;;
67889;SDS011;54685;52.082;5.426;2022-11-14T02:59:16;36.83;;;21.92;;
67889;SDS011;54685;52.082;5.426;2022-11-14T03:02:01;33.75;;;21.15;;
67889;SDS011;54685;52.082;5.426;2022-11-14T03:04:47;35.15;;;20.55;;
67889;SDS011;54685;52.082;5.426;2022-11-14T03:07:32;33.17;;;21.58;;
67889;SDS011;54685;52.082;5.426;2022-11-14T03:10:18;34.60;;;21.88;;
67889;SDS011;54685;52.082;5.426;2022-11-14T03:13:03;39.15;;;24.10;;
67889;SDS011;54685;52.082;5.426;2022-11-14T03:15:48;34.60;;;21.40;;
67889;SDS011;54685;52.082;5.426;2022-11-14T03:18:34;38.63;;;21.75;;
67889;SDS011;54685;52.082;5.426;2022-11-14T03:21:20;38.63;;;23.85;;
67889;SDS011;54685;52.082;5.426;2022-11-14T03:24:07;37.83;;;22.77;;
67889;SDS011;54685;52.082;5.426;2022-11-14T03:26:53;36.50;;;21.60;;
67889;SDS011;54685;52.082;5.426;2022-11-14T03:29:38;38.55;;;23.20;;
67889;SDS011;54685;52.082;5.426;2022-11-14T03:32:24;41.97;;;23.27;;
67889;SDS011;54685;52.082;5.426;2022-11-14T03:35:09;34.85;;;22.77;;
67889;SDS011;54685;52.082;5.426;2022-11-14T03:37:54;37.53;;;22.08;;
67889;SDS011;54685;52.082;5.426;2022-11-14T03:40:41;37.08;;;21.42;;
67889;SDS011;54685;52.082;5.426;2022-11-14T03:43:30;38.70;;;22.50;;
67889;SDS011;54685;52.082;5.426;2022-11-14T03:46:17;35.75;;;21.98;;
67889;SDS011;54685;52.082;5.426;2022-11-14T03:49:02;40.03;;;23.27;;
67889;SDS011;54685;52.082;5.426;2022-11-14T03:51:49;34.88;;;21.73;;
67889;SDS011;54685;52.082;5.426;2022-11-14T03:54:34;36.85;;;21.58;;
67889;SDS011;54685;52.082;5.426;2022-11-14T03:57:19;39.83;;;21.75;;
67889;SDS011;54685;52.082;5.426;2022-11-14T04:00:05;41.95;;;24.13;;
67889;SDS011;54685;52.082;5.426;2022-11-14T04:02:52;41.67;;;23.10;;
67889;SDS011;54685;52.082;5.426;2022-11-14T04:05:41;44.35;;;26.52;;
67889;SDS011;54685;52.082;5.426;2022-11-14T04:08:28;37.78;;;23.00;;
67889;SDS011;54685;52.082;5.426;2022-11-14T04:11:14;37.67;;;23.60;;
67889;SDS011;54685;52.082;5.426;2022-11-14T04:14:00;37.53;;;23.95;;
67889;SDS011;54685;52.082;5.426;2022-11-14T04:16:45;44.10;;;24.95;;
67889;SDS011;54685;52.082;5.426;2022-11-14T04:19:30;40.22;;;24.13;;
67889;SDS011;54685;52.082;5.426;2022-11-14T04:22:16;39.35;;;24.05;;
67889;SDS011;54685;52.082;5.426;2022-11-14T04:25:01;39.55;;;23.70;;
67889;SDS011;54685;52.082;5.426;2022-11-14T04:27:46;37.75;;;21.98;;
67889;SDS011;54685;52.082;5.426;2022-11-14T04:30:32;41.67;;;23.42;;
67889;SDS011;54685;52.082;5.426;2022-11-14T04:33:18;39.92;;;22.98;;
67889;SDS011;54685;52.082;5.426;2022-11-14T04:36:04;37.85;;;22.35;;
67889;SDS011;54685;52.082;5.426;2022-11-14T04:38:49;38.60;;;23.05;;
67889;SDS011;54685;52.082;5.426;2022-11-14T04:41:34;40.05;;;23.83;;
67889;SDS011;54685;52.082;5.426;2022-11-14T04:44:20;44.03;;;24.98;;
67889;SDS011;54685;52.082;5.426;2022-11-14T04:47:05;42.78;;;24.48;;
67889;SDS011;54685;52.082;5.426;2022-11-14T04:49:50;44.03;;;23.42;;
67889;SDS011;54685;52.082;5.426;2022-11-14T04:52:36;43.38;;;25.08;;
67889;SDS011;54685;52.082;5.426;2022-11-14T04:55:21;40.60;;;22.98;;
67889;SDS011;54685;52.082;5.426;2022-11-14T04:58:07;40.10;;;21.55;;
67889;SDS011;54685;52.082;5.426;2022-11-14T05:00:52;37.75;;;22.40;;
67889;SDS011;54685;52.082;5.426;2022-11-14T05:03:38;39.72;;;23.58;;
67889;SDS011;54685;52.082;5.426;2022-11-14T05:06:23;39.03;;;22.40;;
67889;SDS011;54685;52.082;5.426;2022-11-14T05:09:08;42.80;;;24.73;;
67889;SDS011;54685;52.082;5.426;2022-11-14T05:11:54;46.20;;;24.15;;
67889;SDS011;54685;52.082;5.426;2022-11-14T05:14:39;36.33;;;23.00;;
67889;SDS011;54685;52.082;5.426;2022-11-14T05:17:25;39.97;;;22.25;;
67889;SDS011;54685;52.082;5.426;2022-11-14T05:20:12;41.25;;;23.85;;
67889;SDS011;54685;52.082;5.426;2022-11-14T05:22:57;40.30;;;21.70;;
67889;SDS011;54685;52.082;5.426;2022-11-14T05:25:43;38.05;;;22.17;;
67889;SDS011;54685;52.082;5.426;2022-11-14T05:28:28;37.85;;;22.30;;
67889;SDS011;54685;52.082;5.426;2022-11-14T05:31:14;36.17;;;21.17;;
67889;SDS011;54685;52.082;5.426;2022-11-14T05:34:01;38.53;;;22.98;;
67889;SDS011;54685;52.082;5.426;2022-11-14T05:36:47;38.58;;;22.60;;
67889;SDS011;54685;52.082;5.426;2022-11-14T05:39:32;39.80;;;22.63;;
67889;SDS011;54685;52.082;5.426;2022-11-14T05:42:18;36.55;;;22.05;;
67889;SDS011;54685;52.082;5.426;2022-11-14T05:45:03;38.33;;;21.17;;
67889;SDS011;54685;52.082;5.426;2022-11-14T05:47:50;36.92;;;21.30;;
67889;SDS011;54685;52.082;5.426;2022-11-14T05:50:38;39.00;;;22.23;;
67889;SDS011;54685;52.082;5.426;2022-11-14T05:53:24;34.75;;;21.83;;
67889;SDS011;54685;52.082;5.426;2022-11-14T05:56:11;37.40;;;20.58;;
67889;SDS011;54685;52.082;5.426;2022-11-14T05:58:57;36.35;;;20.92;;
67889;SDS011;54685;52.082;5.426;2022-11-14T06:01:42;37.60;;;22.80;;
67889;SDS011;54685;52.082;5.426;2022-11-14T06:04:28;35.08;;;21.08;;
67889;SDS011;54685;52.082;5.426;2022-11-14T06:07:13;38.45;;;21.42;;
67889;SDS011;54685;52.082;5.426;2022-11-14T06:10:03;37.08;;;20.88;;
67889;SDS011;54685;52.082;5.426;2022-11-14T06:12:49;38.08;;;19.67;;
67889;SDS011;54685;52.082;5.426;2022-11-14T06:15:34;32.88;;;19.52;;
67889;SDS011;54685;52.082;5.426;2022-11-14T06:18:20;39.90;;;21.02;;
67889;SDS011;54685;52.082;5.426;2022-11-14T06:21:07;39.42;;;22.25;;
67889;SDS011;54685;52.082;5.426;2022-11-14T06:23:56;34.15;;;21.02;;
67889;SDS011;54685;52.082;5.426;2022-11-14T06:26:42;37.88;;;22.02;;
67889;SDS011;54685;52.082;5.426;2022-11-14T06:29:27;35.40;;;20.67;;
67889;SDS011;54685;52.082;5.426;2022-11-14T06:32:19;38.28;;;22.05;;
67889;SDS011;54685;52.082;5.426;2022-11-14T06:35:04;34.88;;;20.85;;
67889;SDS011;54685;52.082;5.426;2022-11-14T06:37:52;40.13;;;21.33;;
67889;SDS011;54685;52.082;5.426;2022-11-14T06:40:38;35.10;;;20.60;;
67889;SDS011;54685;52.082;5.426;2022-11-14T06:43:23;33.83;;;20.27;;
67889;SDS011;54685;52.082;5.426;2022-11-14T06:46:09;37.70;;;21.20;;
67889;SDS011;54685;52.082;5.426;2022-11-14T06:48:56;41.20;;;21.42;;
67889;SDS011;54685;52.082;5.426;2022-11-14T06:51:42;36.75;;;20.80;;
67889;SDS011;54685;52.082;5.426;2022-11-14T06:54:27;35.80;;;22.65;;
67889;SDS011;54685;52.082;5.426;2022-11-14T06:57:13;39.35;;;21.25;;
67889;SDS011;54685;52.082;5.426;2022-11-14T06:59:58;37.00;;;21.23;;
67889;SDS011;54685;52.082;5.426;2022-11-14T07:02:45;35.13;;;20.23;;
67889;SDS011;54685;52.082;5.426;2022-11-14T07:05:32;35.08;;;19.70;;
67889;SDS011;54685;52.082;5.426;2022-11-14T07:08:17;33.05;;;20.25;;
67889;SDS011;54685;52.082;5.426;2022-11-14T07:11:07;37.58;;;21.38;;
67889;SDS011;54685;52.082;5.426;2022-11-14T07:14:06;37.47;;;21.80;;
67889;SDS011;54685;52.082;5.426;2022-11-14T07:16:53;34.22;;;21.70;;
67889;SDS011;54685;52.082;5.426;2022-11-14T07:19:38;38.35;;;22.15;;
67889;SDS011;54685;52.082;5.426;2022-11-14T07:22:24;33.40;;;20.40;;
67889;SDS011;54685;52.082;5.426;2022-11-14T07:25:09;41.30;;;21.45;;
67889;SDS011;54685;52.082;5.426;2022-11-14T07:27:56;35.75;;;20.08;;
67889;SDS011;54685;52.082;5.426;2022-11-14T07:30:41;33.88;;;19.00;;
67889;SDS011;54685;52.082;5.426;2022-11-14T07:33:27;32.47;;;20.05;;
67889;SDS011;54685;52.082;5.426;2022-11-14T07:36:14;33.33;;;20.08;;
67889;SDS011;54685;52.082;5.426;2022-11-14T07:39:00;35.60;;;20.13;;
67889;SDS011;54685;52.082;5.426;2022-11-14T07:41:45;34.97;;;20.05;;
67889;SDS011;54685;52.082;5.426;2022-11-14T07:44:31;32.00;;;18.88;;
67889;SDS011;54685;52.082;5.426;2022-11-14T07:47:16;39.47;;;20.10;;
67889;SDS011;54685;52.082;5.426;2022-11-14T07:50:02;32.10;;;19.35;;
67889;SDS011;54685;52.082;5.426;2022-11-14T07:52:51;34.75;;;18.45;;
67889;SDS011;54685;52.082;5.426;2022-11-14T07:55:37;36.20;;;18.52;;
67889;SDS011;54685;52.082;5.426;2022-11-14T07:58:23;41.30;;;19.35;;
67889;SDS011;54685;52.082;5.426;2022-11-14T08:01:09;40.47;;;19.17;;
67889;SDS011;54685;52.082;5.426;2022-11-14T08:03:56;39.60;;;18.88;;
67889;SDS011;54685;52.082;5.426;2022-11-14T08:06:41;34.83;;;18.55;;
67889;SDS011;54685;52.082;5.426;2022-11-14T08:09:27;35.45;;;19.65;;
67889;SDS011;54685;52.082;5.426;2022-11-14T08:12:12;36.88;;;18.73;;
67889;SDS011;54685;52.082;5.426;2022-11-14T08:14:57;36.35;;;19.30;;
67889;SDS011;54685;52.082;5.426;2022-11-14T08:17:43;38.30;;;19.35;;
67889;SDS011;54685;52.082;5.426;2022-11-14T08:20:28;32.13;;;18.63;;
67889;SDS011;54685;52.082;5.426;2022-11-14T08:23:14;41.25;;;19.70;;
67889;SDS011;54685;52.082;5.426;2022-11-14T08:25:59;30.38;;;18.65;;
67889;SDS011;54685;52.082;5.426;2022-11-14T08:28:45;32.53;;;17.98;;
67889;SDS011;54685;52.082;5.426;2022-11-14T08:31:30;33.47;;;19.05;;
67889;SDS011;54685;52.082;5.426;2022-11-14T08:34:16;33.10;;;19.23;;
67889;SDS011;54685;52.082;5.426;2022-11-14T08:37:01;29.85;;;17.55;;
67889;SDS011;54685;52.082;5.426;2022-11-14T08:39:47;28.95;;;18.08;;
67889;SDS011;54685;52.082;5.426;2022-11-14T08:42:32;31.17;;;18.85;;
67889;SDS011;54685;52.082;5.426;2022-11-14T08:45:18;33.13;;;19.30;;
67889;SDS011;54685;52.082;5.426;2022-11-14T08:48:03;31.23;;;19.20;;
67889;SDS011;54685;52.082;5.426;2022-11-14T08:50:49;34.67;;;19.08;;
67889;SDS011;54685;52.082;5.426;2022-11-14T08:53:34;33.95;;;19.60;;
67889;SDS011;54685;52.082;5.426;2022-11-14T08:56:21;33.03;;;19.05;;
67889;SDS011;54685;52.082;5.426;2022-11-14T08:59:07;32.38;;;18.63;;
67889;SDS011;54685;52.082;5.426;2022-11-14T09:01:52;31.73;;;19.25;;
67889;SDS011;54685;52.082;5.426;2022-11-14T09:04:38;32.95;;;18.60;;
67889;SDS011;54685;52.082;5.426;2022-11-14T09:07:23;31.83;;;17.98;;
67889;SDS011;54685;52.082;5.426;2022-11-14T09:10:08;35.30;;;18.63;;
67889;SDS011;54685;52.082;5.426;2022-11-14T09:12:57;29.20;;;17.65;;
67889;SDS011;54685;52.082;5.426;2022-11-14T09:15:43;33.45;;;18.92;;
67889;SDS011;54685;52.082;5.426;2022-11-14T09:18:29;31.90;;;18.25;;
67889;SDS011;54685;52.082;5.426;2022-11-14T09:21:16;30.20;;;17.10;;
67889;SDS011;54685;52.082;5.426;2022-11-14T09:24:01;25.52;;;16.05;;
67889;SDS011;54685;52.082;5.426;2022-11-14T09:26:47;27.17;;;16.60;;
67889;SDS011;54685;52.082;5.426;2022-11-14T09:29:40;25.85;;;16.88;;
67889;SDS011;54685;52.082;5.426;2022-11-14T09:32:26;24.40;;;14.85;;
67889;SDS011;54685;52.082;5.426;2022-11-14T09:35:11;25.30;;;15.30;;
67889;SDS011;54685;52.082;5.426;2022-11-14T09:38:01;24.63;;;15.02;;
67889;SDS011;54685;52.082;5.426;2022-11-14T09:41:09;23.42;;;15.27;;
67889;SDS011;54685;52.082;5.426;2022-11-14T09:46:53;23.10;;;14.40;;
67889;SDS011;54685;52.082;5.426;2022-11-14T09:49:43;20.35;;;14.20;;
67889;SDS011;54685;52.082;5.426;2022-11-14T09:52:34;18.10;;;13.75;;
67889;SDS011;54685;52.082;5.426;2022-11-14T09:55:27;21.15;;;14.30;;
67889;SDS011;54685;52.082;5.426;2022-11-14T09:58:20;22.42;;;15.23;;
67889;SDS011;54685;52.082;5.426;2022-11-14T10:01:17;21.02;;;14.35;;
67889;SDS011;54685;52.082;5.426;2022-11-14T10:04:11;22.52;;;14.48;;
67889;SDS011;54685;52.082;5.426;2022-11-14T10:22:45;23.08;;;14.40;;
67889;SDS011;54685;52.082;5.426;2022-11-14T10:35:22;18.10;;;13.13;;
67889;SDS011;54685;52.082;5.426;2022-11-14T10:38:32;15.52;;;12.50;;
67889;SDS011;54685;52.082;5.426;2022-11-14T10:41:23;21.63;;;11.90;;
67889;SDS011;54685;52.082;5.426;2022-11-14T10:44:35;19.05;;;13.60;;
67889;SDS011;54685;52.082;5.426;2022-11-14T10:47:35;20.50;;;12.30;;
67889;SDS011;54685;52.082;5.426;2022-11-14T10:50:27;23.20;;;13.15;;
67889;SDS011;54685;52.082;5.426;2022-11-14T10:53:37;16.15;;;12.48;;
67889;SDS011;54685;52.082;5.426;2022-11-14T10:56:29;16.73;;;12.43;;
67889;SDS011;54685;52.082;5.426;2022-11-14T10:59:15;16.88;;;12.82;;
67889;SDS011;54685;52.082;5.426;2022-11-14T11:02:01;17.83;;;12.77;;
67889;SDS011;54685;52.082;5.426;2022-11-14T11:04:46;15.63;;;12.43;;
67889;SDS011;54685;52.082;5.426;2022-11-14T11:07:31;19.30;;;13.30;;
67889;SDS011;54685;52.082;5.426;2022-11-14T11:11:11;15.88;;;13.50;;
67889;SDS011;54685;52.082;5.426;2022-11-14T11:14:16;18.17;;;13.07;;
67889;SDS011;54685;52.082;5.426;2022-11-14T11:19:55;15.77;;;12.82;;
67889;SDS011;54685;52.082;5.426;2022-11-14T11:26:00;15.70;;;13.40;;
67889;SDS011;54685;52.082;5.426;2022-11-14T11:29:07;17.42;;;13.15;;
67889;SDS011;54685;52.082;5.426;2022-11-14T11:32:01;21.20;;;13.23;;
67889;SDS011;54685;52.082;5.426;2022-11-14T11:34:46;21.63;;;13.27;;
67889;SDS011;54685;52.082;5.426;2022-11-14T11:40:33;21.50;;;13.45;;
67889;SDS011;54685;52.082;5.426;2022-11-14T11:46:28;20.33;;;12.93;;
67889;SDS011;54685;52.082;5.426;2022-11-14T11:49:33;20.88;;;13.25;;
67889;SDS011;54685;52.082;5.426;2022-11-14T11:56:37;18.80;;;12.95;;
67889;SDS011;54685;52.082;5.426;2022-11-14T11:59:20;22.67;;;13.27;;
67889;SDS011;54685;52.082;5.426;2022-11-14T12:02:29;17.15;;;12.13;;
67889;SDS011;54685;52.082;5.426;2022-11-14T12:05:27;16.08;;;12.25;;
67889;SDS011;54685;52.082;5.426;2022-11-14T12:08:29;17.83;;;13.10;;
67889;SDS011;54685;52.082;5.426;2022-11-14T12:11:31;18.08;;;12.55;;
67889;SDS011;54685;52.082;5.426;2022-11-14T12:14:27;19.15;;;13.75;;
67889;SDS011;54685;52.082;5.426;2022-11-14T12:27:12;19.83;;;14.90;;
67889;SDS011;54685;52.082;5.426;2022-11-14T12:33:09;29.90;;;21.13;;
67889;SDS011;54685;52.082;5.426;2022-11-14T12:36:03;29.30;;;21.08;;
67889;SDS011;54685;52.082;5.426;2022-11-14T12:38:53;25.75;;;19.77;;
67889;SDS011;54685;52.082;5.426;2022-11-14T12:41:39;27.20;;;20.08;;
67889;SDS011;54685;52.082;5.426;2022-11-14T12:47:18;28.65;;;19.45;;
67889;SDS011;54685;52.082;5.426;2022-11-14T12:50:27;23.85;;;17.85;;
67889;SDS011;54685;52.082;5.426;2022-11-14T12:59:25;25.25;;;17.58;;
67889;SDS011;54685;52.082;5.426;2022-11-14T13:02:23;26.30;;;18.95;;
67889;SDS011;54685;52.082;5.426;2022-11-14T13:05:42;27.27;;;19.13;;
67889;SDS011;54685;52.082;5.426;2022-11-14T13:11:48;29.17;;;19.60;;
67889;SDS011;54685;52.082;5.426;2022-11-14T13:14:53;27.63;;;18.75;;
67889;SDS011;54685;52.082;5.426;2022-11-14T13:18:03;29.05;;;18.70;;
67889;SDS011;54685;52.082;5.426;2022-11-14T13:21:23;27.35;;;18.88;;
67889;SDS011;54685;52.082;5.426;2022-11-14T13:25:13;22.70;;;17.05;;
67889;SDS011;54685;52.082;5.426;2022-11-14T13:50:31;30.17;;;20.33;;
67889;SDS011;54685;52.082;5.426;2022-11-14T13:53:25;28.92;;;19.92;;
67889;SDS011;54685;52.082;5.426;2022-11-14T14:02:53;33.75;;;22.40;;
67889;SDS011;54685;52.082;5.426;2022-11-14T14:05:47;29.15;;;20.83;;
67889;SDS011;54685;52.082;5.426;2022-11-14T14:15:04;35.55;;;23.02;;
67889;SDS011;54685;52.082;5.426;2022-11-14T14:24:22;35.65;;;23.48;;
67889;SDS011;54685;52.082;5.426;2022-11-14T14:27:15;39.75;;;25.60;;
67889;SDS011;54685;52.082;5.426;2022-11-14T14:33:14;39.35;;;25.45;;
67889;SDS011;54685;52.082;5.426;2022-11-14T14:36:00;38.42;;;24.48;;
67889;SDS011;54685;52.082;5.426;2022-11-14T14:38:46;39.58;;;25.55;;
67889;SDS011;54685;52.082;5.426;2022-11-14T14:41:32;38.50;;;25.58;;
67889;SDS011;54685;52.082;5.426;2022-11-14T14:44:25;41.38;;;25.92;;
67889;SDS011;54685;52.082;5.426;2022-11-14T14:47:15;40.22;;;24.95;;
67889;SDS011;54685;52.082;5.426;2022-11-14T14:50:21;37.28;;;25.48;;
67889;SDS011;54685;52.082;5.426;2022-11-14T14:53:17;38.88;;;26.17;;
67889;SDS011;54685;52.082;5.426;2022-11-14T14:56:21;36.30;;;24.67;;
67889;SDS011;54685;52.082;5.426;2022-11-14T14:59:16;37.58;;;23.98;;
67889;SDS011;54685;52.082;5.426;2022-11-14T15:02:07;40.33;;;24.65;;
67889;SDS011;54685;52.082;5.426;2022-11-14T15:04:57;38.00;;;23.85;;
67889;SDS011;54685;52.082;5.426;2022-11-14T15:07:44;43.25;;;24.98;;
67889;SDS011;54685;52.082;5.426;2022-11-14T15:10:31;40.30;;;24.52;;
67889;SDS011;54685;52.082;5.426;2022-11-14T15:13:16;41.88;;;24.73;;
67889;SDS011;54685;52.082;5.426;2022-11-14T15:16:03;36.92;;;23.55;;
67889;SDS011;54685;52.082;5.426;2022-11-14T15:18:51;41.05;;;24.85;;
67889;SDS011;54685;52.082;5.426;2022-11-14T15:21:38;43.53;;;24.60;;
67889;SDS011;54685;52.082;5.426;2022-11-14T15:24:24;35.28;;;22.45;;
67889;SDS011;54685;52.082;5.426;2022-11-14T15:27:11;37.97;;;24.20;;
67889;SDS011;54685;52.082;5.426;2022-11-14T15:30:04;35.47;;;24.17;;
67889;SDS011;54685;52.082;5.426;2022-11-14T15:32:51;39.90;;;23.95;;
67889;SDS011;54685;52.082;5.426;2022-11-14T15:35:41;37.22;;;24.23;;
67889;SDS011;54685;52.082;5.426;2022-11-14T15:38:26;35.78;;;22.90;;
67889;SDS011;54685;52.082;5.426;2022-11-14T15:41:28;35.60;;;22.10;;
67889;SDS011;54685;52.082;5.426;2022-11-14T15:44:28;36.95;;;24.45;;
67889;SDS011;54685;52.082;5.426;2022-11-14T15:47:30;41.00;;;24.33;;
67889;SDS011;54685;52.082;5.426;2022-11-14T15:50:25;35.38;;;22.73;;
67889;SDS011;54685;52.082;5.426;2022-11-14T15:53:16;37.10;;;22.90;;
67889;SDS011;54685;52.082;5.426;2022-11-14T15:56:06;38.13;;;23.73;;
67889;SDS011;54685;52.082;5.426;2022-11-14T15:58:54;35.17;;;23.33;;
67889;SDS011;54685;52.082;5.426;2022-11-14T16:01:40;34.22;;;23.23;;
67889;SDS011;54685;52.082;5.426;2022-11-14T16:04:29;38.08;;;23.10;;
67889;SDS011;54685;52.082;5.426;2022-11-14T16:07:18;34.72;;;21.55;;
67889;SDS011;54685;52.082;5.426;2022-11-14T16:10:08;35.42;;;24.42;;
67889;SDS011;54685;52.082;5.426;2022-11-14T16:12:57;36.50;;;23.70;;
67889;SDS011;54685;52.082;5.426;2022-11-14T16:15:42;33.50;;;23.08;;
67889;SDS011;54685;52.082;5.426;2022-11-14T16:18:27;35.50;;;22.88;;
67889;SDS011;54685;52.082;5.426;2022-11-14T16:21:14;34.90;;;23.17;;
67889;SDS011;54685;52.082;5.426;2022-11-14T16:24:02;39.45;;;24.20;;
67889;SDS011;54685;52.082;5.426;2022-11-14T16:26:48;38.03;;;23.75;;
67889;SDS011;54685;52.082;5.426;2022-11-14T16:29:34;40.28;;;25.73;;
67889;SDS011;54685;52.082;5.426;2022-11-14T16:32:20;39.42;;;25.08;;
67889;SDS011;54685;52.082;5.426;2022-11-14T16:35:10;41.75;;;25.85;;
67889;SDS011;54685;52.082;5.426;2022-11-14T16:38:06;39.05;;;25.77;;
67889;SDS011;54685;52.082;5.426;2022-11-14T16:40:55;37.38;;;24.45;;
67889;SDS011;54685;52.082;5.426;2022-11-14T16:43:41;41.13;;;25.20;;
67889;SDS011;54685;52.082;5.426;2022-11-14T16:46:26;41.47;;;25.73;;
67889;SDS011;54685;52.082;5.426;2022-11-14T16:49:15;39.45;;;25.25;;
67889;SDS011;54685;52.082;5.426;2022-11-14T16:52:03;38.85;;;25.90;;
67889;SDS011;54685;52.082;5.426;2022-11-14T16:54:52;38.17;;;25.02;;
67889;SDS011;54685;52.082;5.426;2022-11-14T16:57:38;43.00;;;26.08;;
67889;SDS011;54685;52.082;5.426;2022-11-14T17:00:24;39.35;;;26.05;;
67889;SDS011;54685;52.082;5.426;2022-11-14T17:03:10;40.75;;;27.85;;
67889;SDS011;54685;52.082;5.426;2022-11-14T17:05:55;42.08;;;28.42;;
67889;SDS011;54685;52.082;5.426;2022-11-14T17:08:41;44.55;;;28.58;;
67889;SDS011;54685;52.082;5.426;2022-11-14T17:11:26;40.42;;;26.50;;
67889;SDS011;54685;52.082;5.426;2022-11-14T17:14:12;37.30;;;25.10;;
67889;SDS011;54685;52.082;5.426;2022-11-14T17:16:58;38.17;;;25.05;;
67889;SDS011;54685;52.082;5.426;2022-11-14T17:19:46;37.60;;;24.95;;
67889;SDS011;54685;52.082;5.426;2022-11-14T17:22:33;40.70;;;26.02;;
67889;SDS011;54685;52.082;5.426;2022-11-14T17:25:18;38.75;;;24.08;;
67889;SDS011;54685;52.082;5.426;2022-11-14T17:28:04;34.40;;;23.60;;
67889;SDS011;54685;52.082;5.426;2022-11-14T17:30:49;43.58;;;26.80;;
67889;SDS011;54685;52.082;5.426;2022-11-14T17:33:35;40.08;;;26.38;;
67889;SDS011;54685;52.082;5.426;2022-11-14T17:36:22;42.88;;;25.63;;
67889;SDS011;54685;52.082;5.426;2022-11-14T17:39:10;41.30;;;24.58;;
67889;SDS011;54685;52.082;5.426;2022-11-14T17:41:55;42.30;;;24.65;;
67889;SDS011;54685;52.082;5.426;2022-11-14T17:44:41;38.40;;;25.67;;
67889;SDS011;54685;52.082;5.426;2022-11-14T17:47:26;39.67;;;25.33;;
67889;SDS011;54685;52.082;5.426;2022-11-14T17:50:12;44.72;;;26.85;;
67889;SDS011;54685;52.082;5.426;2022-11-14T17:52:57;50.30;;;30.10;;
67889;SDS011;54685;52.082;5.426;2022-11-14T17:55:44;43.28;;;27.27;;
67889;SDS011;54685;52.082;5.426;2022-11-14T17:58:30;42.13;;;26.55;;
67889;SDS011;54685;52.082;5.426;2022-11-14T18:01:17;39.42;;;26.25;;
67889;SDS011;54685;52.082;5.426;2022-11-14T18:04:05;40.58;;;26.58;;
67889;SDS011;54685;52.082;5.426;2022-11-14T18:06:53;39.17;;;25.75;;
67889;SDS011;54685;52.082;5.426;2022-11-14T18:09:39;39.08;;;25.00;;
67889;SDS011;54685;52.082;5.426;2022-11-14T18:12:25;41.95;;;24.17;;
67889;SDS011;54685;52.082;5.426;2022-11-14T18:15:10;42.38;;;26.83;;
67889;SDS011;54685;52.082;5.426;2022-11-14T18:17:56;38.72;;;26.10;;
67889;SDS011;54685;52.082;5.426;2022-11-14T18:20:42;40.42;;;26.95;;